sensor_id;sensor_type;location;lat;lon;timestamp;P1;durP1;ratioP1;P2;durP2;ratioP2
62880;SDS011;48969;49.934;8.596;2023-08-12T00:01:54;6.82;;;5.40;;
62880;SDS011;48969;49.934;8.596;2023-08-12T00:04:20;6.57;;;5.30;;
62880;SDS011;48969;49.934;8.596;2023-08-12T00:06:45;6.45;;;5.07;;
62880;SDS011;48969;49.934;8.596;2023-08-12T00:09:10;5.80;;;4.93;;
62880;SDS011;48969;49.934;8.596;2023-08-12T00:11:37;8.02;;;5.10;;
62880;SDS011;48969;49.934;8.596;2023-08-12T00:14:03;8.77;;;5.20;;
62880;SDS011;48969;49.934;8.596;2023-08-12T00:16:28;5.47;;;4.70;;
62880;SDS011;48969;49.934;8.596;2023-08-12T00:18:54;8.02;;;5.63;;
62880;SDS011;48969;49.934;8.596;2023-08-12T00:21:19;6.20;;;5.32;;
62880;SDS011;48969;49.934;8.596;2023-08-12T00:23:45;6.38;;;5.28;;
62880;SDS011;48969;49.934;8.596;2023-08-12T00:26:10;6.32;;;5.38;;
62880;SDS011;48969;49.934;8.596;2023-08-12T00:28:36;7.40;;;5.05;;
62880;SDS011;48969;49.934;8.596;2023-08-12T00:31:02;6.85;;;5.00;;
62880;SDS011;48969;49.934;8.596;2023-08-12T00:33:28;8.55;;;4.90;;
62880;SDS011;48969;49.934;8.596;2023-08-12T00:35:53;5.78;;;5.05;;
62880;SDS011;48969;49.934;8.596;2023-08-12T00:38:18;5.78;;;5.18;;
62880;SDS011;48969;49.934;8.596;2023-08-12T00:40:44;5.63;;;4.82;;
62880;SDS011;48969;49.934;8.596;2023-08-12T00:43:09;6.45;;;5.13;;
62880;SDS011;48969;49.934;8.596;2023-08-12T00:45:34;6.03;;;4.90;;
62880;SDS011;48969;49.934;8.596;2023-08-12T00:48:01;5.75;;;5.15;;
62880;SDS011;48969;49.934;8.596;2023-08-12T00:50:27;6.40;;;5.07;;
62880;SDS011;48969;49.934;8.596;2023-08-12T00:52:53;5.78;;;5.10;;
62880;SDS011;48969;49.934;8.596;2023-08-12T00:55:18;5.80;;;5.05;;
62880;SDS011;48969;49.934;8.596;2023-08-12T00:57:46;7.63;;;5.15;;
62880;SDS011;48969;49.934;8.596;2023-08-12T01:00:12;5.65;;;5.00;;
62880;SDS011;48969;49.934;8.596;2023-08-12T01:02:38;5.88;;;5.20;;
62880;SDS011;48969;49.934;8.596;2023-08-12T01:05:03;6.00;;;4.70;;
62880;SDS011;48969;49.934;8.596;2023-08-12T01:07:30;5.28;;;4.72;;
62880;SDS011;48969;49.934;8.596;2023-08-12T01:10:07;7.03;;;5.50;;
62880;SDS011;48969;49.934;8.596;2023-08-12T01:12:37;6.30;;;4.60;;
62880;SDS011;48969;49.934;8.596;2023-08-12T01:15:20;6.05;;;4.85;;
62880;SDS011;48969;49.934;8.596;2023-08-12T01:17:47;6.85;;;4.80;;
62880;SDS011;48969;49.934;8.596;2023-08-12T01:20:16;6.22;;;5.07;;
62880;SDS011;48969;49.934;8.596;2023-08-12T01:22:49;6.97;;;5.15;;
62880;SDS011;48969;49.934;8.596;2023-08-12T01:25:21;6.53;;;4.57;;
62880;SDS011;48969;49.934;8.596;2023-08-12T01:27:46;6.38;;;4.85;;
62880;SDS011;48969;49.934;8.596;2023-08-12T01:30:11;6.13;;;4.72;;
62880;SDS011;48969;49.934;8.596;2023-08-12T01:32:51;7.35;;;4.68;;
62880;SDS011;48969;49.934;8.596;2023-08-12T01:35:21;5.88;;;4.68;;
62880;SDS011;48969;49.934;8.596;2023-08-12T01:37:51;5.88;;;4.82;;
62880;SDS011;48969;49.934;8.596;2023-08-12T01:40:19;5.30;;;4.65;;
62880;SDS011;48969;49.934;8.596;2023-08-12T01:42:45;5.90;;;4.47;;
62880;SDS011;48969;49.934;8.596;2023-08-12T01:45:10;6.30;;;5.15;;
62880;SDS011;48969;49.934;8.596;2023-08-12T01:47:36;5.30;;;4.80;;
62880;SDS011;48969;49.934;8.596;2023-08-12T01:50:02;6.55;;;4.97;;
62880;SDS011;48969;49.934;8.596;2023-08-12T01:52:27;6.57;;;5.10;;
62880;SDS011;48969;49.934;8.596;2023-08-12T01:54:53;5.38;;;4.63;;
62880;SDS011;48969;49.934;8.596;2023-08-12T01:57:19;6.03;;;4.90;;
62880;SDS011;48969;49.934;8.596;2023-08-12T01:59:45;6.38;;;4.93;;
62880;SDS011;48969;49.934;8.596;2023-08-12T02:02:11;7.47;;;4.95;;
62880;SDS011;48969;49.934;8.596;2023-08-12T02:04:37;5.68;;;4.90;;
62880;SDS011;48969;49.934;8.596;2023-08-12T02:07:03;7.15;;;4.68;;
62880;SDS011;48969;49.934;8.596;2023-08-12T02:09:28;5.65;;;4.70;;
62880;SDS011;48969;49.934;8.596;2023-08-12T02:11:54;6.30;;;5.13;;
62880;SDS011;48969;49.934;8.596;2023-08-12T02:14:19;8.18;;;5.22;;
62880;SDS011;48969;49.934;8.596;2023-08-12T02:16:45;6.55;;;5.43;;
62880;SDS011;48969;49.934;8.596;2023-08-12T02:19:10;5.63;;;4.90;;
62880;SDS011;48969;49.934;8.596;2023-08-12T02:21:35;6.70;;;5.38;;
62880;SDS011;48969;49.934;8.596;2023-08-12T02:24:00;5.22;;;4.72;;
62880;SDS011;48969;49.934;8.596;2023-08-12T02:26:26;7.07;;;5.38;;
62880;SDS011;48969;49.934;8.596;2023-08-12T02:28:51;6.05;;;5.30;;
62880;SDS011;48969;49.934;8.596;2023-08-12T02:31:16;5.88;;;5.00;;
62880;SDS011;48969;49.934;8.596;2023-08-12T02:33:42;5.28;;;4.78;;
62880;SDS011;48969;49.934;8.596;2023-08-12T02:36:08;5.32;;;4.60;;
62880;SDS011;48969;49.934;8.596;2023-08-12T02:38:33;6.55;;;4.93;;
62880;SDS011;48969;49.934;8.596;2023-08-12T02:40:58;5.05;;;4.55;;
62880;SDS011;48969;49.934;8.596;2023-08-12T02:43:24;6.53;;;5.20;;
62880;SDS011;48969;49.934;8.596;2023-08-12T02:45:49;6.13;;;5.07;;
62880;SDS011;48969;49.934;8.596;2023-08-12T02:48:14;8.65;;;5.47;;
62880;SDS011;48969;49.934;8.596;2023-08-12T02:50:39;6.03;;;5.43;;
62880;SDS011;48969;49.934;8.596;2023-08-12T02:53:05;7.57;;;6.07;;
62880;SDS011;48969;49.934;8.596;2023-08-12T02:55:31;7.18;;;6.13;;
62880;SDS011;48969;49.934;8.596;2023-08-12T02:57:57;7.43;;;6.10;;
62880;SDS011;48969;49.934;8.596;2023-08-12T03:00:23;6.72;;;5.82;;
62880;SDS011;48969;49.934;8.596;2023-08-12T03:02:48;7.22;;;6.15;;
62880;SDS011;48969;49.934;8.596;2023-08-12T03:05:13;7.45;;;6.18;;
62880;SDS011;48969;49.934;8.596;2023-08-12T03:07:39;7.25;;;6.47;;
62880;SDS011;48969;49.934;8.596;2023-08-12T03:10:04;8.38;;;7.00;;
62880;SDS011;48969;49.934;8.596;2023-08-12T03:12:30;7.50;;;6.72;;
62880;SDS011;48969;49.934;8.596;2023-08-12T03:14:55;9.40;;;7.05;;
62880;SDS011;48969;49.934;8.596;2023-08-12T03:17:21;8.27;;;6.70;;
62880;SDS011;48969;49.934;8.596;2023-08-12T03:19:46;11.88;;;7.30;;
62880;SDS011;48969;49.934;8.596;2023-08-12T03:22:11;9.50;;;8.23;;
62880;SDS011;48969;49.934;8.596;2023-08-12T03:24:36;10.13;;;8.55;;
62880;SDS011;48969;49.934;8.596;2023-08-12T03:27:02;9.57;;;8.15;;
62880;SDS011;48969;49.934;8.596;2023-08-12T03:29:27;9.35;;;8.45;;
62880;SDS011;48969;49.934;8.596;2023-08-12T03:31:52;8.82;;;7.63;;
62880;SDS011;48969;49.934;8.596;2023-08-12T03:34:17;11.32;;;8.85;;
62880;SDS011;48969;49.934;8.596;2023-08-12T03:36:43;9.50;;;8.27;;
62880;SDS011;48969;49.934;8.596;2023-08-12T03:39:08;11.77;;;8.32;;
62880;SDS011;48969;49.934;8.596;2023-08-12T03:41:33;11.68;;;8.68;;
62880;SDS011;48969;49.934;8.596;2023-08-12T03:43:59;9.02;;;7.93;;
62880;SDS011;48969;49.934;8.596;2023-08-12T03:46:24;9.43;;;8.40;;
62880;SDS011;48969;49.934;8.596;2023-08-12T03:48:49;9.93;;;8.90;;
62880;SDS011;48969;49.934;8.596;2023-08-12T03:51:15;9.20;;;8.30;;
62880;SDS011;48969;49.934;8.596;2023-08-12T03:53:40;9.80;;;8.80;;
62880;SDS011;48969;49.934;8.596;2023-08-12T03:56:05;10.45;;;9.35;;
62880;SDS011;48969;49.934;8.596;2023-08-12T03:58:30;10.20;;;9.10;;
62880;SDS011;48969;49.934;8.596;2023-08-12T04:00:56;10.98;;;9.88;;
62880;SDS011;48969;49.934;8.596;2023-08-12T04:03:21;10.27;;;9.30;;
62880;SDS011;48969;49.934;8.596;2023-08-12T04:05:49;10.50;;;9.48;;
62880;SDS011;48969;49.934;8.596;2023-08-12T04:08:18;10.65;;;9.55;;
62880;SDS011;48969;49.934;8.596;2023-08-12T04:10:45;10.93;;;9.82;;
62880;SDS011;48969;49.934;8.596;2023-08-12T04:13:11;11.07;;;9.95;;
62880;SDS011;48969;49.934;8.596;2023-08-12T04:15:40;10.32;;;9.30;;
62880;SDS011;48969;49.934;8.596;2023-08-12T04:18:05;11.40;;;9.68;;
62880;SDS011;48969;49.934;8.596;2023-08-12T04:20:30;11.50;;;10.30;;
62880;SDS011;48969;49.934;8.596;2023-08-12T04:22:56;11.40;;;9.90;;
62880;SDS011;48969;49.934;8.596;2023-08-12T04:25:21;12.68;;;10.38;;
62880;SDS011;48969;49.934;8.596;2023-08-12T04:27:47;11.00;;;9.77;;
62880;SDS011;48969;49.934;8.596;2023-08-12T04:30:14;11.50;;;9.98;;
62880;SDS011;48969;49.934;8.596;2023-08-12T04:32:40;11.23;;;10.00;;
62880;SDS011;48969;49.934;8.596;2023-08-12T04:35:06;11.63;;;10.50;;
62880;SDS011;48969;49.934;8.596;2023-08-12T04:37:31;10.98;;;9.73;;
62880;SDS011;48969;49.934;8.596;2023-08-12T04:39:57;11.10;;;10.00;;
62880;SDS011;48969;49.934;8.596;2023-08-12T04:42:23;11.48;;;10.32;;
62880;SDS011;48969;49.934;8.596;2023-08-12T04:44:48;11.15;;;10.05;;
62880;SDS011;48969;49.934;8.596;2023-08-12T04:47:14;11.95;;;10.65;;
62880;SDS011;48969;49.934;8.596;2023-08-12T04:49:39;13.40;;;11.38;;
62880;SDS011;48969;49.934;8.596;2023-08-12T04:52:05;12.25;;;10.30;;
62880;SDS011;48969;49.934;8.596;2023-08-12T04:54:31;12.70;;;10.40;;
62880;SDS011;48969;49.934;8.596;2023-08-12T04:56:57;13.52;;;10.25;;
62880;SDS011;48969;49.934;8.596;2023-08-12T04:59:22;11.68;;;9.95;;
62880;SDS011;48969;49.934;8.596;2023-08-12T05:01:47;10.73;;;9.73;;
62880;SDS011;48969;49.934;8.596;2023-08-12T05:04:13;11.10;;;9.63;;
62880;SDS011;48969;49.934;8.596;2023-08-12T05:06:38;11.43;;;10.20;;
62880;SDS011;48969;49.934;8.596;2023-08-12T05:09:03;11.40;;;10.20;;
62880;SDS011;48969;49.934;8.596;2023-08-12T05:11:29;13.05;;;11.75;;
62880;SDS011;48969;49.934;8.596;2023-08-12T05:13:54;12.07;;;10.77;;
62880;SDS011;48969;49.934;8.596;2023-08-12T05:16:19;12.35;;;11.05;;
62880;SDS011;48969;49.934;8.596;2023-08-12T05:18:45;12.80;;;10.73;;
62880;SDS011;48969;49.934;8.596;2023-08-12T05:21:10;11.93;;;10.73;;
62880;SDS011;48969;49.934;8.596;2023-08-12T05:23:35;12.23;;;10.98;;
62880;SDS011;48969;49.934;8.596;2023-08-12T05:26:01;11.88;;;10.70;;
62880;SDS011;48969;49.934;8.596;2023-08-12T05:28:26;13.10;;;10.50;;
62880;SDS011;48969;49.934;8.596;2023-08-12T05:30:51;12.20;;;10.88;;
62880;SDS011;48969;49.934;8.596;2023-08-12T05:33:19;11.77;;;10.57;;
62880;SDS011;48969;49.934;8.596;2023-08-12T05:35:46;11.90;;;10.80;;
62880;SDS011;48969;49.934;8.596;2023-08-12T05:38:12;11.93;;;10.77;;
62880;SDS011;48969;49.934;8.596;2023-08-12T05:40:37;12.65;;;11.38;;
62880;SDS011;48969;49.934;8.596;2023-08-12T05:43:03;12.77;;;11.25;;
62880;SDS011;48969;49.934;8.596;2023-08-12T05:45:28;13.20;;;10.48;;
62880;SDS011;48969;49.934;8.596;2023-08-12T05:47:53;11.07;;;10.02;;
62880;SDS011;48969;49.934;8.596;2023-08-12T05:50:19;12.23;;;11.02;;
62880;SDS011;48969;49.934;8.596;2023-08-12T05:52:44;12.00;;;10.75;;
62880;SDS011;48969;49.934;8.596;2023-08-12T05:55:09;12.60;;;11.20;;
62880;SDS011;48969;49.934;8.596;2023-08-12T05:57:34;11.65;;;10.40;;
62880;SDS011;48969;49.934;8.596;2023-08-12T06:00:00;13.18;;;11.02;;
62880;SDS011;48969;49.934;8.596;2023-08-12T06:02:25;10.65;;;9.55;;
62880;SDS011;48969;49.934;8.596;2023-08-12T06:04:51;10.43;;;9.35;;
62880;SDS011;48969;49.934;8.596;2023-08-12T06:07:17;10.68;;;9.55;;
62880;SDS011;48969;49.934;8.596;2023-08-12T06:09:43;10.75;;;9.45;;
62880;SDS011;48969;49.934;8.596;2023-08-12T06:12:08;11.60;;;10.40;;
62880;SDS011;48969;49.934;8.596;2023-08-12T06:14:36;11.13;;;9.93;;
62880;SDS011;48969;49.934;8.596;2023-08-12T06:17:03;13.05;;;10.23;;
62880;SDS011;48969;49.934;8.596;2023-08-12T06:19:28;10.77;;;9.77;;
62880;SDS011;48969;49.934;8.596;2023-08-12T06:21:53;11.80;;;10.20;;
62880;SDS011;48969;49.934;8.596;2023-08-12T06:24:18;11.68;;;10.15;;
62880;SDS011;48969;49.934;8.596;2023-08-12T06:26:44;11.23;;;9.77;;
62880;SDS011;48969;49.934;8.596;2023-08-12T06:29:09;11.88;;;10.55;;
62880;SDS011;48969;49.934;8.596;2023-08-12T06:31:34;12.30;;;10.95;;
62880;SDS011;48969;49.934;8.596;2023-08-12T06:33:59;10.68;;;9.57;;
62880;SDS011;48969;49.934;8.596;2023-08-12T06:36:25;11.57;;;10.38;;
62880;SDS011;48969;49.934;8.596;2023-08-12T06:38:51;11.77;;;10.52;;
62880;SDS011;48969;49.934;8.596;2023-08-12T06:41:16;11.77;;;10.43;;
62880;SDS011;48969;49.934;8.596;2023-08-12T06:43:42;12.23;;;11.00;;
62880;SDS011;48969;49.934;8.596;2023-08-12T06:46:07;11.38;;;10.18;;
62880;SDS011;48969;49.934;8.596;2023-08-12T06:48:32;13.88;;;9.90;;
62880;SDS011;48969;49.934;8.596;2023-08-12T06:50:57;11.13;;;9.85;;
62880;SDS011;48969;49.934;8.596;2023-08-12T06:53:24;10.73;;;9.63;;
62880;SDS011;48969;49.934;8.596;2023-08-12T06:55:51;10.70;;;9.60;;
62880;SDS011;48969;49.934;8.596;2023-08-12T06:58:16;13.10;;;9.30;;
62880;SDS011;48969;49.934;8.596;2023-08-12T07:00:41;11.90;;;9.85;;
62880;SDS011;48969;49.934;8.596;2023-08-12T07:03:07;11.18;;;10.07;;
62880;SDS011;48969;49.934;8.596;2023-08-12T07:05:32;11.27;;;9.30;;
62880;SDS011;48969;49.934;8.596;2023-08-12T07:07:57;11.82;;;9.57;;
62880;SDS011;48969;49.934;8.596;2023-08-12T07:10:23;12.75;;;9.95;;
62880;SDS011;48969;49.934;8.596;2023-08-12T07:12:48;10.55;;;8.73;;
62880;SDS011;48969;49.934;8.596;2023-08-12T07:15:13;12.48;;;9.93;;
62880;SDS011;48969;49.934;8.596;2023-08-12T07:17:39;11.70;;;10.00;;
62880;SDS011;48969;49.934;8.596;2023-08-12T07:20:04;10.88;;;9.77;;
62880;SDS011;48969;49.934;8.596;2023-08-12T07:22:31;11.07;;;9.98;;
62880;SDS011;48969;49.934;8.596;2023-08-12T07:24:56;10.93;;;9.85;;
62880;SDS011;48969;49.934;8.596;2023-08-12T07:27:24;11.25;;;10.13;;
62880;SDS011;48969;49.934;8.596;2023-08-12T07:29:50;9.93;;;8.93;;
62880;SDS011;48969;49.934;8.596;2023-08-12T07:32:15;11.10;;;9.98;;
62880;SDS011;48969;49.934;8.596;2023-08-12T07:34:40;10.85;;;9.85;;
62880;SDS011;48969;49.934;8.596;2023-08-12T07:37:05;10.48;;;9.35;;
62880;SDS011;48969;49.934;8.596;2023-08-12T07:39:31;11.18;;;9.60;;
62880;SDS011;48969;49.934;8.596;2023-08-12T07:41:56;10.57;;;9.57;;
62880;SDS011;48969;49.934;8.596;2023-08-12T07:44:21;10.98;;;9.55;;
62880;SDS011;48969;49.934;8.596;2023-08-12T07:46:47;11.57;;;10.10;;
62880;SDS011;48969;49.934;8.596;2023-08-12T07:49:12;11.05;;;9.40;;
62880;SDS011;48969;49.934;8.596;2023-08-12T07:51:37;9.40;;;8.40;;
62880;SDS011;48969;49.934;8.596;2023-08-12T07:54:03;11.07;;;9.98;;
62880;SDS011;48969;49.934;8.596;2023-08-12T07:56:28;12.43;;;10.48;;
62880;SDS011;48969;49.934;8.596;2023-08-12T07:58:53;10.07;;;9.07;;
62880;SDS011;48969;49.934;8.596;2023-08-12T08:01:19;12.27;;;10.20;;
62880;SDS011;48969;49.934;8.596;2023-08-12T08:03:44;12.38;;;9.98;;
62880;SDS011;48969;49.934;8.596;2023-08-12T08:06:09;11.00;;;9.90;;
62880;SDS011;48969;49.934;8.596;2023-08-12T08:08:34;11.82;;;10.57;;
62880;SDS011;48969;49.934;8.596;2023-08-12T08:11:00;11.18;;;10.07;;
62880;SDS011;48969;49.934;8.596;2023-08-12T08:13:25;11.63;;;10.50;;
62880;SDS011;48969;49.934;8.596;2023-08-12T08:15:50;11.60;;;9.88;;
62880;SDS011;48969;49.934;8.596;2023-08-12T08:18:16;11.20;;;10.10;;
62880;SDS011;48969;49.934;8.596;2023-08-12T08:20:42;9.90;;;8.90;;
62880;SDS011;48969;49.934;8.596;2023-08-12T08:23:07;11.30;;;10.15;;
62880;SDS011;48969;49.934;8.596;2023-08-12T08:25:33;10.75;;;9.65;;
62880;SDS011;48969;49.934;8.596;2023-08-12T08:27:58;11.35;;;9.82;;
62880;SDS011;48969;49.934;8.596;2023-08-12T08:30:23;12.05;;;10.70;;
62880;SDS011;48969;49.934;8.596;2023-08-12T08:32:50;10.32;;;9.25;;
62880;SDS011;48969;49.934;8.596;2023-08-12T08:35:18;11.13;;;9.98;;
62880;SDS011;48969;49.934;8.596;2023-08-12T08:37:43;10.75;;;9.48;;
62880;SDS011;48969;49.934;8.596;2023-08-12T08:40:09;11.10;;;9.90;;
62880;SDS011;48969;49.934;8.596;2023-08-12T08:42:35;10.95;;;9.85;;
62880;SDS011;48969;49.934;8.596;2023-08-12T08:45:02;11.23;;;9.82;;
62880;SDS011;48969;49.934;8.596;2023-08-12T08:47:32;10.13;;;9.10;;
62880;SDS011;48969;49.934;8.596;2023-08-12T08:49:57;10.85;;;9.75;;
62880;SDS011;48969;49.934;8.596;2023-08-12T08:52:24;11.90;;;10.25;;
62880;SDS011;48969;49.934;8.596;2023-08-12T08:54:50;12.00;;;10.73;;
62880;SDS011;48969;49.934;8.596;2023-08-12T08:57:16;11.32;;;9.88;;
62880;SDS011;48969;49.934;8.596;2023-08-12T08:59:43;10.48;;;9.38;;
62880;SDS011;48969;49.934;8.596;2023-08-12T09:02:26;12.48;;;10.75;;
62880;SDS011;48969;49.934;8.596;2023-08-12T09:04:52;11.65;;;10.45;;
62880;SDS011;48969;49.934;8.596;2023-08-12T09:07:18;10.85;;;9.68;;
62880;SDS011;48969;49.934;8.596;2023-08-12T09:09:45;12.80;;;11.10;;
62880;SDS011;48969;49.934;8.596;2023-08-12T09:12:14;11.60;;;10.40;;
62880;SDS011;48969;49.934;8.596;2023-08-12T09:14:40;11.80;;;10.60;;
62880;SDS011;48969;49.934;8.596;2023-08-12T09:17:06;10.80;;;9.70;;
62880;SDS011;48969;49.934;8.596;2023-08-12T09:19:32;12.93;;;11.45;;
62880;SDS011;48969;49.934;8.596;2023-08-12T09:21:57;13.05;;;11.77;;
62880;SDS011;48969;49.934;8.596;2023-08-12T09:24:24;9.98;;;8.98;;
62880;SDS011;48969;49.934;8.596;2023-08-12T09:26:53;9.73;;;8.73;;
62880;SDS011;48969;49.934;8.596;2023-08-12T09:29:38;12.05;;;10.02;;
62880;SDS011;48969;49.934;8.596;2023-08-12T09:32:13;11.02;;;9.50;;
62880;SDS011;48969;49.934;8.596;2023-08-12T09:37:12;10.07;;;9.07;;
62880;SDS011;48969;49.934;8.596;2023-08-12T09:39:38;11.27;;;9.75;;
62880;SDS011;48969;49.934;8.596;2023-08-12T09:42:05;11.48;;;10.32;;
62880;SDS011;48969;49.934;8.596;2023-08-12T09:44:30;9.88;;;8.75;;
62880;SDS011;48969;49.934;8.596;2023-08-12T09:46:56;10.88;;;9.43;;
62880;SDS011;48969;49.934;8.596;2023-08-12T09:49:23;9.35;;;8.07;;
62880;SDS011;48969;49.934;8.596;2023-08-12T09:51:48;10.43;;;9.00;;
62880;SDS011;48969;49.934;8.596;2023-08-12T09:54:16;14.50;;;11.88;;
62880;SDS011;48969;49.934;8.596;2023-08-12T09:56:42;10.98;;;9.88;;
62880;SDS011;48969;49.934;8.596;2023-08-12T09:59:11;12.32;;;10.40;;
62880;SDS011;48969;49.934;8.596;2023-08-12T10:01:38;11.95;;;10.25;;
62880;SDS011;48969;49.934;8.596;2023-08-12T10:04:06;11.48;;;9.20;;
62880;SDS011;48969;49.934;8.596;2023-08-12T10:06:36;11.13;;;9.98;;
62880;SDS011;48969;49.934;8.596;2023-08-12T10:09:03;9.38;;;8.38;;
62880;SDS011;48969;49.934;8.596;2023-08-12T10:11:30;10.20;;;8.73;;
62880;SDS011;48969;49.934;8.596;2023-08-12T10:13:55;8.70;;;7.80;;
62880;SDS011;48969;49.934;8.596;2023-08-12T10:16:21;9.38;;;8.35;;
62880;SDS011;48969;49.934;8.596;2023-08-12T10:18:48;8.85;;;7.07;;
62880;SDS011;48969;49.934;8.596;2023-08-12T10:21:14;8.65;;;7.00;;
62880;SDS011;48969;49.934;8.596;2023-08-12T10:23:40;12.65;;;7.97;;
62880;SDS011;48969;49.934;8.596;2023-08-12T10:26:07;17.75;;;9.32;;
62880;SDS011;48969;49.934;8.596;2023-08-12T10:28:33;12.93;;;8.25;;
62880;SDS011;48969;49.934;8.596;2023-08-12T10:31:02;11.18;;;8.27;;
62880;SDS011;48969;49.934;8.596;2023-08-12T10:33:29;10.18;;;7.65;;
62880;SDS011;48969;49.934;8.596;2023-08-12T10:35:56;10.32;;;8.20;;
62880;SDS011;48969;49.934;8.596;2023-08-12T10:38:21;11.18;;;9.07;;
62880;SDS011;48969;49.934;8.596;2023-08-12T10:40:50;9.38;;;5.70;;
62880;SDS011;48969;49.934;8.596;2023-08-12T10:43:15;7.75;;;5.40;;
62880;SDS011;48969;49.934;8.596;2023-08-12T10:46:02;5.53;;;4.75;;
62880;SDS011;48969;49.934;8.596;2023-08-12T10:48:26;4.90;;;4.40;;
62880;SDS011;48969;49.934;8.596;2023-08-12T10:50:57;6.60;;;4.82;;
62880;SDS011;48969;49.934;8.596;2023-08-12T10:53:33;5.18;;;4.68;;
62880;SDS011;48969;49.934;8.596;2023-08-12T10:56:01;7.93;;;4.95;;
62880;SDS011;48969;49.934;8.596;2023-08-12T10:58:29;6.60;;;5.30;;
62880;SDS011;48969;49.934;8.596;2023-08-12T11:01:18;7.28;;;5.32;;
62880;SDS011;48969;49.934;8.596;2023-08-12T11:03:43;6.07;;;4.45;;
62880;SDS011;48969;49.934;8.596;2023-08-12T11:06:10;5.22;;;4.05;;
62880;SDS011;48969;49.934;8.596;2023-08-12T11:08:35;4.72;;;4.00;;
62880;SDS011;48969;49.934;8.596;2023-08-12T11:11:01;5.30;;;4.15;;
62880;SDS011;48969;49.934;8.596;2023-08-12T11:13:28;7.28;;;4.32;;
62880;SDS011;48969;49.934;8.596;2023-08-12T11:15:54;4.50;;;4.10;;
62880;SDS011;48969;49.934;8.596;2023-08-12T11:18:30;7.45;;;4.00;;
62880;SDS011;48969;49.934;8.596;2023-08-12T11:20:56;6.05;;;4.13;;
62880;SDS011;48969;49.934;8.596;2023-08-12T11:23:22;5.78;;;3.90;;
62880;SDS011;48969;49.934;8.596;2023-08-12T11:25:47;4.85;;;3.63;;
62880;SDS011;48969;49.934;8.596;2023-08-12T11:28:15;6.50;;;3.60;;
62880;SDS011;48969;49.934;8.596;2023-08-12T11:30:42;6.22;;;4.38;;
62880;SDS011;48969;49.934;8.596;2023-08-12T11:33:08;4.50;;;3.55;;
62880;SDS011;48969;49.934;8.596;2023-08-12T11:35:34;5.35;;;4.20;;
62880;SDS011;48969;49.934;8.596;2023-08-12T11:37:59;5.63;;;3.75;;
62880;SDS011;48969;49.934;8.596;2023-08-12T11:40:25;5.88;;;3.35;;
62880;SDS011;48969;49.934;8.596;2023-08-12T11:42:52;5.60;;;3.83;;
62880;SDS011;48969;49.934;8.596;2023-08-12T11:45:19;6.10;;;4.18;;
62880;SDS011;48969;49.934;8.596;2023-08-12T11:47:49;4.88;;;3.70;;
62880;SDS011;48969;49.934;8.596;2023-08-12T11:50:18;5.25;;;3.35;;
62880;SDS011;48969;49.934;8.596;2023-08-12T11:52:45;4.55;;;3.60;;
62880;SDS011;48969;49.934;8.596;2023-08-12T11:55:11;5.13;;;3.45;;
62880;SDS011;48969;49.934;8.596;2023-08-12T11:57:37;4.93;;;3.70;;
62880;SDS011;48969;49.934;8.596;2023-08-12T12:00:06;5.95;;;3.70;;
62880;SDS011;48969;49.934;8.596;2023-08-12T12:02:48;5.65;;;4.00;;
62880;SDS011;48969;49.934;8.596;2023-08-12T12:05:21;4.13;;;2.95;;
62880;SDS011;48969;49.934;8.596;2023-08-12T12:07:48;5.20;;;3.08;;
62880;SDS011;48969;49.934;8.596;2023-08-12T12:10:17;4.28;;;3.05;;
62880;SDS011;48969;49.934;8.596;2023-08-12T12:12:44;5.15;;;3.10;;
62880;SDS011;48969;49.934;8.596;2023-08-12T12:15:10;3.83;;;3.10;;
62880;SDS011;48969;49.934;8.596;2023-08-12T12:17:41;5.45;;;3.20;;
62880;SDS011;48969;49.934;8.596;2023-08-12T12:20:06;5.22;;;3.13;;
62880;SDS011;48969;49.934;8.596;2023-08-12T12:22:35;4.20;;;3.22;;
62880;SDS011;48969;49.934;8.596;2023-08-12T12:25:08;4.47;;;3.40;;
62880;SDS011;48969;49.934;8.596;2023-08-12T12:27:36;4.85;;;3.35;;
62880;SDS011;48969;49.934;8.596;2023-08-12T12:30:02;5.05;;;3.35;;
62880;SDS011;48969;49.934;8.596;2023-08-12T12:32:28;3.75;;;2.72;;
62880;SDS011;48969;49.934;8.596;2023-08-12T12:34:54;4.78;;;2.88;;
62880;SDS011;48969;49.934;8.596;2023-08-12T12:37:20;5.05;;;3.05;;
62880;SDS011;48969;49.934;8.596;2023-08-12T12:39:45;4.38;;;3.20;;
62880;SDS011;48969;49.934;8.596;2023-08-12T12:42:11;4.20;;;2.65;;
62880;SDS011;48969;49.934;8.596;2023-08-12T12:44:37;5.55;;;3.00;;
62880;SDS011;48969;49.934;8.596;2023-08-12T12:47:02;4.28;;;3.10;;
62880;SDS011;48969;49.934;8.596;2023-08-12T12:49:28;3.70;;;2.47;;
62880;SDS011;48969;49.934;8.596;2023-08-12T12:51:54;3.65;;;3.17;;
62880;SDS011;48969;49.934;8.596;2023-08-12T12:54:19;4.32;;;3.03;;
62880;SDS011;48969;49.934;8.596;2023-08-12T12:56:45;3.72;;;2.30;;
62880;SDS011;48969;49.934;8.596;2023-08-12T12:59:10;3.20;;;2.20;;
62880;SDS011;48969;49.934;8.596;2023-08-12T13:01:35;4.20;;;2.38;;
62880;SDS011;48969;49.934;8.596;2023-08-12T13:04:01;3.60;;;2.45;;
62880;SDS011;48969;49.934;8.596;2023-08-12T13:06:27;3.15;;;2.55;;
62880;SDS011;48969;49.934;8.596;2023-08-12T13:08:53;2.85;;;2.38;;
62880;SDS011;48969;49.934;8.596;2023-08-12T13:11:18;3.17;;;2.45;;
62880;SDS011;48969;49.934;8.596;2023-08-12T13:13:43;4.20;;;2.70;;
62880;SDS011;48969;49.934;8.596;2023-08-12T13:16:09;3.78;;;2.40;;
62880;SDS011;48969;49.934;8.596;2023-08-12T13:18:34;4.13;;;2.63;;
62880;SDS011;48969;49.934;8.596;2023-08-12T13:20:59;3.28;;;2.33;;
62880;SDS011;48969;49.934;8.596;2023-08-12T13:23:26;2.70;;;2.17;;
62880;SDS011;48969;49.934;8.596;2023-08-12T13:25:51;3.17;;;2.63;;
62880;SDS011;48969;49.934;8.596;2023-08-12T13:28:16;4.82;;;2.60;;
62880;SDS011;48969;49.934;8.596;2023-08-12T13:30:43;4.78;;;2.75;;
62880;SDS011;48969;49.934;8.596;2023-08-12T13:33:09;4.05;;;2.55;;
62880;SDS011;48969;49.934;8.596;2023-08-12T13:35:34;4.03;;;2.75;;
62880;SDS011;48969;49.934;8.596;2023-08-12T13:38:00;3.33;;;2.47;;
62880;SDS011;48969;49.934;8.596;2023-08-12T13:40:25;3.08;;;2.72;;
62880;SDS011;48969;49.934;8.596;2023-08-12T13:42:50;4.63;;;3.40;;
62880;SDS011;48969;49.934;8.596;2023-08-12T13:45:16;3.53;;;2.70;;
62880;SDS011;48969;49.934;8.596;2023-08-12T13:47:41;4.25;;;3.10;;
62880;SDS011;48969;49.934;8.596;2023-08-12T13:50:06;4.20;;;3.03;;
62880;SDS011;48969;49.934;8.596;2023-08-12T13:52:32;4.85;;;3.00;;
62880;SDS011;48969;49.934;8.596;2023-08-12T13:55:05;4.70;;;3.28;;
62880;SDS011;48969;49.934;8.596;2023-08-12T13:59:56;3.80;;;3.00;;
62880;SDS011;48969;49.934;8.596;2023-08-12T14:02:22;3.88;;;2.70;;
62880;SDS011;48969;49.934;8.596;2023-08-12T14:04:48;3.75;;;2.75;;
62880;SDS011;48969;49.934;8.596;2023-08-12T14:07:16;3.17;;;2.75;;
62880;SDS011;48969;49.934;8.596;2023-08-12T14:09:45;3.65;;;2.65;;
62880;SDS011;48969;49.934;8.596;2023-08-12T14:12:11;4.00;;;2.60;;
62880;SDS011;48969;49.934;8.596;2023-08-12T14:14:36;4.45;;;3.08;;
62880;SDS011;48969;49.934;8.596;2023-08-12T14:17:02;4.55;;;2.80;;
62880;SDS011;48969;49.934;8.596;2023-08-12T14:19:27;4.05;;;2.75;;
62880;SDS011;48969;49.934;8.596;2023-08-12T14:21:53;2.55;;;2.35;;
62880;SDS011;48969;49.934;8.596;2023-08-12T14:24:18;4.70;;;2.65;;
62880;SDS011;48969;49.934;8.596;2023-08-12T14:26:44;4.63;;;2.97;;
62880;SDS011;48969;49.934;8.596;2023-08-12T14:29:09;2.88;;;2.60;;
62880;SDS011;48969;49.934;8.596;2023-08-12T14:31:34;3.40;;;2.75;;
62880;SDS011;48969;49.934;8.596;2023-08-12T14:34:00;2.60;;;2.40;;
62880;SDS011;48969;49.934;8.596;2023-08-12T14:36:26;3.42;;;2.58;;
62880;SDS011;48969;49.934;8.596;2023-08-12T14:38:52;3.90;;;2.38;;